Clipper Saga — LAFY6 — position and weather

sailwx.info

Track history (hours):
 
Tides and Currents Weather Stations Pressure Air Temp Water Temp Dewpoint Dewpoint Depression Visibility Wind Speed Wind Dir Waves Ship Positions

Clipper Saga

Last reported at 2016-Dec-10 05:19 UTC. Time now 2016-Dec-10 18:30 UTC.
Position N 49°27' E 000°49'.

Length 89 m; draft 5.9 m.

Type: Ship (hazmat cat C). MMSI: 246657008.

Date/timePositionNaut miles runAvg speedWind from/ knotsBaromVisibWave heightAir tempDewpointWater temp
2016-Dec-10 05:19N 49°27' E 000°49'6 6.5
2016-Dec-10 04:21N 49°29' E 000°40'6 7.8
2016-Dec-10 03:33N 49°29' E 000°31'1313.4
2016-Dec-10 02:34N 49°26' E 000°11'1010.2
2016-Dec-10 01:33N 49°29' W 000°04'5 5.4
2016-Dec-10 00:33N 49°32' W 000°11'7 7.4
2016-Dec-09 23:33N 49°39' W 000°10'7 7.3
2016-Dec-09 22:33N 49°47' W 000°09'7 7.2
2016-Dec-09 21:33N 49°54' W 000°09'7 7.4
2016-Dec-09 20:33N 50°01' W 000°08'7 7.3
2016-Dec-09 19:33N 50°09' W 000°07'8 7.8
2016-Dec-09 18:33N 50°16' W 000°05'1110.6
2016-Dec-09 17:33N 50°27' W 000°02'10 9.7
2016-Dec-09 16:33N 50°30' E 000°12'4110.0
2016-Dec-09 12:24N 50°50' E 001°10'1011.6
2016-Dec-09 11:33N 50°57' E 001°21'1111.3
2016-Dec-09 10:33N 51°05' E 001°33'1110.6
2016-Dec-09 09:33N 51°13' E 001°45'1010.0
2016-Dec-09 08:33N 51°20' E 001°55'8 8.2
2016-Dec-09 07:34N 51°23' E 002°07'1010.3
2016-Dec-09 06:33N 51°21' E 002°24'1111.3
2016-Dec-09 05:33N 51°22' E 002°42'1211.9
2016-Dec-09 04:33N 51°24' E 003°01'1212.3
2016-Dec-09 03:33N 51°24' E 003°20'1111.0
2016-Dec-09 02:33N 51°25' E 003°38'9 8.8
2016-Dec-09 01:33N 51°20' E 003°49'5 4.9
2016-Dec-09 00:33N 51°15' E 003°49'5 5.3
2016-Dec-08 23:32N 51°09' E 003°47'0 0.0
2016-Dec-08 22:29N 51°09' E 003°47'0 0.0
2016-Dec-08 21:29N 51°09' E 003°47'0 0.0
2016-Dec-08 20:29N 51°09' E 003°47'0 0.0
2016-Dec-08 19:29N 51°09' E 003°47'1 0.7
2016-Dec-08 18:28N 51°09' E 003°47'0 0.0
2016-Dec-08 17:28N 51°09' E 003°47'0 0.0
2016-Dec-08 16:31N 51°09' E 003°47'0 0.0
2016-Dec-08 15:31N 51°09' E 003°47'0 0.0
2016-Dec-08 14:31N 51°09' E 003°47'0 0.0
2016-Dec-08 13:31N 51°09' E 003°47'0 0.0
2016-Dec-08 12:25N 51°09' E 003°47'0 0.0
2016-Dec-08 11:28N 51°09' E 003°47'0 0.0
2016-Dec-08 10:31N 51°09' E 003°47'0 0.0
2016-Dec-08 09:25N 51°09' E 003°47'0 0.0
2016-Dec-08 07:22N 51°09' E 003°47'0 0.0
2016-Dec-08 06:25N 51°09' E 003°47'0 0.0
2016-Dec-08 04:28N 51°09' E 003°47'0 0.0
2016-Dec-08 03:28N 51°09' E 003°47'0 0.0
2016-Dec-08 02:31N 51°09' E 003°47'0 0.0
2016-Dec-08 01:32N 51°09' E 003°47'5 5.1
2016-Dec-08 00:33N 51°14' E 003°48'6 6.1
2016-Dec-07 23:33N 51°20' E 003°49'1 0.6
2016-Dec-07 22:33N 51°20' E 003°49'7 6.6
2016-Dec-07 21:33N 51°25' E 003°41'7 7.3
2016-Dec-07 20:33N 51°28' E 003°30'9 9.4
2016-Dec-07 19:33N 51°36' E 003°22'10 9.4
2016-Dec-07 18:32N 51°45' E 003°15'2 2.1
2016-Dec-07 17:30N 51°45' E 003°18'0 0.0
2016-Dec-07 16:12N 51°45' E 003°18'0 0.1
2016-Dec-07 15:33N 51°45' E 003°18'0 0.1
2016-Dec-07 14:30N 51°45' E 003°18'0 0.1
2016-Dec-07 13:33N 51°45' E 003°18'6 5.8
2016-Dec-07 12:34N 51°46' E 003°09'1110.9
2016-Dec-07 11:33N 51°48' E 002°52'1111.0
2016-Dec-07 10:33N 51°55' E 002°37'49 9.7
2016-Dec-07 05:32N 52°39' E 002°04'9 9.5
2016-Dec-07 04:33N 52°47' E 001°56'1110.9
2016-Dec-07 03:34N 52°52' E 001°40'1111.2
2016-Dec-07 02:33N 53°00' E 001°28'1212.1
2016-Dec-07 01:33N 53°10' E 001°14'4611.5
2016-Dec-06 21:33N 53°33' E 000°08'1010.1
2016-Dec-06 20:34N 53°37' W 000°08'9 4.2
2016-Dec-06 18:32N 53°45' W 000°15'0 0.0
2016-Dec-06 17:29N 53°45' W 000°15'0 0.0
2016-Dec-06 16:32N 53°45' W 000°15'0 0.0
2016-Dec-06 15:32N 53°45' W 000°15'0 0.0
2016-Dec-06 14:32N 53°45' W 000°15'0 0.0
2016-Dec-06 13:29N 53°45' W 000°15'0 0.0
2016-Dec-06 12:32N 53°45' W 000°15'0 0.0
2016-Dec-06 11:32N 53°45' W 000°15'0 0.0
2016-Dec-06 10:32N 53°45' W 000°15'0 0.3
2016-Dec-06 09:33N 53°45' W 000°16'0 0.5
2016-Dec-06 08:33N 53°44' W 000°17'7 7.5
2016-Dec-06 07:34N 53°38' W 000°10'1111.1
2016-Dec-06 06:33N 53°34' E 000°07'7 7.0
2016-Dec-06 05:33N 53°36' E 000°19'28 9.1
2016-Dec-06 02:31N 54°03' E 000°10'9 9.8
2016-Dec-06 01:33N 54°12' E 000°04'10 9.8
2016-Dec-06 00:33N 54°20' W 000°04'1010.3
2016-Dec-05 23:33N 54°29' W 000°13'1110.7
2016-Dec-05 22:33N 54°39' W 000°22'5811.4
2016-Dec-05 17:31N 55°29' W 001°10'1111.7
2016-Dec-05 16:33N 55°38' W 001°23'1211.8
2016-Dec-05 15:33N 55°45' W 001°40'1111.3
2016-Dec-05 14:33N 55°52' W 001°55'1110.9
2016-Dec-05 13:33N 55°58' W 002°11'1110.9
2016-Dec-05 12:33N 56°03' W 002°29'1110.7
2016-Dec-05 11:33N 56°06' W 002°47'1111.5
2016-Dec-05 10:33N 56°03' W 003°07'11 0.4
2016-Dec-04 06:05N 56°01' W 003°27'4 8.0
2016-Dec-04 05:33N 56°01' W 003°19'7 7.3
2016-Dec-04 04:34N 56°02' W 003°06'0 0.0
2016-Dec-04 03:30N 56°02' W 003°06'0 0.0
2016-Dec-04 02:34N 56°02' W 003°06'0 0.0
2016-Dec-04 01:33N 56°02' W 003°06'0 0.0
2016-Dec-04 00:33N 56°02' W 003°06'0 0.0
2016-Dec-03 23:30N 56°02' W 003°06'0 0.0
2016-Dec-03 22:33N 56°02' W 003°06'0 0.0
2016-Dec-03 21:34N 56°02' W 003°06'0 0.1
2016-Dec-03 20:33N 56°02' W 003°06'0 0.0
2016-Dec-03 19:33N 56°02' W 003°06'0 0.0
2016-Dec-03 18:33N 56°02' W 003°06'0 0.0
2016-Dec-03 17:33N 56°02' W 003°06'7 7.4
2016-Dec-03 16:33N 56°05' W 002°54'1312.6
2016-Dec-03 15:33N 56°08' W 002°32'1212.3
2016-Dec-03 14:33N 56°11' W 002°11'1212.3
2016-Dec-03 13:33N 56°14' W 001°49'1212.2
2016-Dec-03 12:33N 56°16' W 001°28'44016.0
2016-Dec-02 09:06N 59°16' E 011°06'0 0.0
2016-Dec-02 06:27N 59°16' E 011°06'0 0.0
2016-Dec-02 05:12N 59°16' E 011°06'9115.7
2016-Dec-01 23:27N 57°49' E 010°19'7 7.6
2016-Dec-01 22:33N 57°49' E 010°31'7 7.2
2016-Dec-01 21:33N 57°48' E 010°45'7 7.5
2016-Dec-01 20:33N 57°42' E 010°36'0 0.1
2016-Dec-01 19:33N 57°42' E 010°36'0 0.1
2016-Dec-01 18:28N 57°42' E 010°36'7 7.9
2016-Dec-01 17:34N 57°47' E 010°45'1111.5
2016-Dec-01 16:34N 57°59' E 010°42'1111.4
2016-Dec-01 15:33N 58°10' E 010°38'1110.8
2016-Dec-01 14:34N 58°20' E 010°34'1110.4
2016-Dec-01 13:33N 58°31' E 010°30'9 9.1
2016-Dec-01 12:33N 58°40' E 010°26'1110.6
2016-Dec-01 11:34N 58°50' E 010°29'1211.8
2016-Dec-01 10:34N 59°00' E 010°40'10 9.7
2016-Dec-01 09:34N 59°03' E 010°58'10 9.9
2016-Dec-01 08:34N 59°13' E 010°58'5 5.3
2016-Dec-01 07:33N 59°16' E 011°06'4443.5
2016-Dec-01 06:33N 58°54' E 009°53'3 3.3
2016-Dec-01 05:33N 58°56' E 009°48'5 4.7
2016-Dec-01 04:33N 59°00' E 009°47'6 5.7
2016-Dec-01 03:33N 59°04' E 009°39'3 2.8
2016-Dec-01 02:31N 59°06' E 009°35'0 0.0
2016-Dec-01 01:33N 59°06' E 009°35'0 0.0
2016-Dec-01 00:27N 59°06' E 009°35'0 0.0
2016-Nov-30 23:30N 59°06' E 009°35'0 0.0
2016-Nov-30 22:24N 59°06' E 009°35'0 0.0
2016-Nov-30 21:33N 59°06' E 009°35'0 0.0
2016-Nov-30 20:32N 59°06' E 009°35'0 0.0
2016-Nov-30 19:33N 59°06' E 009°35'0 0.0
2016-Nov-30 18:33N 59°06' E 009°35'0 0.0
2016-Nov-30 17:32N 59°06' E 009°35'0 0.0
2016-Nov-30 16:31N 59°06' E 009°35'0 0.0
2016-Nov-30 15:33N 59°06' E 009°35'0 0.0
2016-Nov-30 14:31N 59°06' E 009°35'0 0.0
2016-Nov-30 13:33N 59°06' E 009°35'0 0.0
2016-Nov-30 12:33N 59°06' E 009°35'0 0.0
2016-Nov-30 11:31N 59°06' E 009°35'0 0.0
2016-Nov-30 10:33N 59°06' E 009°35'2 1.5
2016-Nov-30 09:33N 59°07' E 009°38'0 0.0
2016-Nov-30 08:32N 59°07' E 009°38'0 0.0
2016-Nov-30 07:32N 59°07' E 009°38'0 0.0
2016-Nov-30 06:32N 59°07' E 009°38'0 0.0
2016-Nov-30 05:32N 59°07' E 009°38'  
Track history (hours):
 
Tides and Currents Weather Stations Pressure Air Temp Water Temp Dewpoint Dewpoint Depression Visibility Wind Speed Wind Dir Waves Ship Positions

Clipper Saga

Last reported at 2016-Dec-10 05:19 UTC. Time now 2016-Dec-10 18:30 UTC.
Position N 49°27' E 000°49'.

Length 89 m; draft 5.9 m.

Type: Ship (hazmat cat C). MMSI: 246657008.

Date/timePositionNaut miles runAvg speedWind from/ knotsBaromVisibWave heightAir tempDewpointWater temp
2016-Dec-10 05:19N 49°27' E 000°49'6 6.5
2016-Dec-10 04:21N 49°29' E 000°40'6 7.8
2016-Dec-10 03:33N 49°29' E 000°31'1313.4
2016-Dec-10 02:34N 49°26' E 000°11'1010.2
2016-Dec-10 01:33N 49°29' W 000°04'5 5.4
2016-Dec-10 00:33N 49°32' W 000°11'7 7.4
2016-Dec-09 23:33N 49°39' W 000°10'7 7.3
2016-Dec-09 22:33N 49°47' W 000°09'7 7.2
2016-Dec-09 21:33N 49°54' W 000°09'7 7.4
2016-Dec-09 20:33N 50°01' W 000°08'7 7.3
2016-Dec-09 19:33N 50°09' W 000°07'8 7.8
2016-Dec-09 18:33N 50°16' W 000°05'1110.6
2016-Dec-09 17:33N 50°27' W 000°02'10 9.7
2016-Dec-09 16:33N 50°30' E 000°12'4110.0
2016-Dec-09 12:24N 50°50' E 001°10'1011.6
2016-Dec-09 11:33N 50°57' E 001°21'1111.3
2016-Dec-09 10:33N 51°05' E 001°33'1110.6
2016-Dec-09 09:33N 51°13' E 001°45'1010.0
2016-Dec-09 08:33N 51°20' E 001°55'8 8.2
2016-Dec-09 07:34N 51°23' E 002°07'1010.3
2016-Dec-09 06:33N 51°21' E 002°24'1111.3
2016-Dec-09 05:33N 51°22' E 002°42'1211.9
2016-Dec-09 04:33N 51°24' E 003°01'1212.3
2016-Dec-09 03:33N 51°24' E 003°20'1111.0
2016-Dec-09 02:33N 51°25' E 003°38'9 8.8
2016-Dec-09 01:33N 51°20' E 003°49'5 4.9
2016-Dec-09 00:33N 51°15' E 003°49'5 5.3
2016-Dec-08 23:32N 51°09' E 003°47'0 0.0
2016-Dec-08 22:29N 51°09' E 003°47'0 0.0
2016-Dec-08 21:29N 51°09' E 003°47'0 0.0
2016-Dec-08 20:29N 51°09' E 003°47'0 0.0
2016-Dec-08 19:29N 51°09' E 003°47'1 0.7
2016-Dec-08 18:28N 51°09' E 003°47'0 0.0
2016-Dec-08 17:28N 51°09' E 003°47'0 0.0
2016-Dec-08 16:31N 51°09' E 003°47'0 0.0
2016-Dec-08 15:31N 51°09' E 003°47'0 0.0
2016-Dec-08 14:31N 51°09' E 003°47'0 0.0
2016-Dec-08 13:31N 51°09' E 003°47'0 0.0
2016-Dec-08 12:25N 51°09' E 003°47'0 0.0
2016-Dec-08 11:28N 51°09' E 003°47'0 0.0
2016-Dec-08 10:31N 51°09' E 003°47'0 0.0
2016-Dec-08 09:25N 51°09' E 003°47'0 0.0
2016-Dec-08 07:22N 51°09' E 003°47'0 0.0
2016-Dec-08 06:25N 51°09' E 003°47'0 0.0
2016-Dec-08 04:28N 51°09' E 003°47'0 0.0
2016-Dec-08 03:28N 51°09' E 003°47'0 0.0
2016-Dec-08 02:31N 51°09' E 003°47'0 0.0
2016-Dec-08 01:32N 51°09' E 003°47'5 5.1
2016-Dec-08 00:33N 51°14' E 003°48'6 6.1
2016-Dec-07 23:33N 51°20' E 003°49'1 0.6
2016-Dec-07 22:33N 51°20' E 003°49'7 6.6
2016-Dec-07 21:33N 51°25' E 003°41'7 7.3
2016-Dec-07 20:33N 51°28' E 003°30'9 9.4
2016-Dec-07 19:33N 51°36' E 003°22'10 9.4
2016-Dec-07 18:32N 51°45' E 003°15'2 2.1
2016-Dec-07 17:30N 51°45' E 003°18'0 0.0
2016-Dec-07 16:12N 51°45' E 003°18'0 0.1
2016-Dec-07 15:33N 51°45' E 003°18'0 0.1
2016-Dec-07 14:30N 51°45' E 003°18'0 0.1
2016-Dec-07 13:33N 51°45' E 003°18'6 5.8
2016-Dec-07 12:34N 51°46' E 003°09'1110.9
2016-Dec-07 11:33N 51°48' E 002°52'1111.0
2016-Dec-07 10:33N 51°55' E 002°37'49 9.7
2016-Dec-07 05:32N 52°39' E 002°04'9 9.5
2016-Dec-07 04:33N 52°47' E 001°56'1110.9
2016-Dec-07 03:34N 52°52' E 001°40'1111.2
2016-Dec-07 02:33N 53°00' E 001°28'1212.1
2016-Dec-07 01:33N 53°10' E 001°14'4611.5
2016-Dec-06 21:33N 53°33' E 000°08'1010.1
2016-Dec-06 20:34N 53°37' W 000°08'9 4.2
2016-Dec-06 18:32N 53°45' W 000°15'0 0.0
2016-Dec-06 17:29N 53°45' W 000°15'0 0.0
2016-Dec-06 16:32N 53°45' W 000°15'0 0.0
2016-Dec-06 15:32N 53°45' W 000°15'0 0.0
2016-Dec-06 14:32N 53°45' W 000°15'0 0.0
2016-Dec-06 13:29N 53°45' W 000°15'0 0.0
2016-Dec-06 12:32N 53°45' W 000°15'0 0.0
2016-Dec-06 11:32N 53°45' W 000°15'0 0.0
2016-Dec-06 10:32N 53°45' W 000°15'0 0.3
2016-Dec-06 09:33N 53°45' W 000°16'0 0.5
2016-Dec-06 08:33N 53°44' W 000°17'7 7.5
2016-Dec-06 07:34N 53°38' W 000°10'1111.1
2016-Dec-06 06:33N 53°34' E 000°07'7 7.0
2016-Dec-06 05:33N 53°36' E 000°19'28 9.1
2016-Dec-06 02:31N 54°03' E 000°10'9 9.8
2016-Dec-06 01:33N 54°12' E 000°04'10 9.8
2016-Dec-06 00:33N 54°20' W 000°04'1010.3
2016-Dec-05 23:33N 54°29' W 000°13'1110.7
2016-Dec-05 22:33N 54°39' W 000°22'5811.4
2016-Dec-05 17:31N 55°29' W 001°10'1111.7
2016-Dec-05 16:33N 55°38' W 001°23'1211.8
2016-Dec-05 15:33N 55°45' W 001°40'1111.3
2016-Dec-05 14:33N 55°52' W 001°55'1110.9
2016-Dec-05 13:33N 55°58' W 002°11'1110.9
2016-Dec-05 12:33N 56°03' W 002°29'1110.7
2016-Dec-05 11:33N 56°06' W 002°47'1111.5
2016-Dec-05 10:33N 56°03' W 003°07'11 0.4
2016-Dec-04 06:05N 56°01' W 003°27'4 8.0
2016-Dec-04 05:33N 56°01' W 003°19'7 7.3
2016-Dec-04 04:34N 56°02' W 003°06'0 0.0
2016-Dec-04 03:30N 56°02' W 003°06'0 0.0
2016-Dec-04 02:34N 56°02' W 003°06'0 0.0
2016-Dec-04 01:33N 56°02' W 003°06'0 0.0
2016-Dec-04 00:33N 56°02' W 003°06'0 0.0
2016-Dec-03 23:30N 56°02' W 003°06'0 0.0
2016-Dec-03 22:33N 56°02' W 003°06'0 0.0
2016-Dec-03 21:34N 56°02' W 003°06'0 0.1
2016-Dec-03 20:33N 56°02' W 003°06'0 0.0
2016-Dec-03 19:33N 56°02' W 003°06'0 0.0
2016-Dec-03 18:33N 56°02' W 003°06'0 0.0
2016-Dec-03 17:33N 56°02' W 003°06'7 7.4
2016-Dec-03 16:33N 56°05' W 002°54'1312.6
2016-Dec-03 15:33N 56°08' W 002°32'1212.3
2016-Dec-03 14:33N 56°11' W 002°11'1212.3
2016-Dec-03 13:33N 56°14' W 001°49'1212.2
2016-Dec-03 12:33N 56°16' W 001°28'44016.0
2016-Dec-02 09:06N 59°16' E 011°06'0 0.0
2016-Dec-02 06:27N 59°16' E 011°06'0 0.0
2016-Dec-02 05:12N 59°16' E 011°06'9115.7
2016-Dec-01 23:27N 57°49' E 010°19'7 7.6
2016-Dec-01 22:33N 57°49' E 010°31'7 7.2
2016-Dec-01 21:33N 57°48' E 010°45'7 7.5
2016-Dec-01 20:33N 57°42' E 010°36'0 0.1
2016-Dec-01 19:33N 57°42' E 010°36'0 0.1
2016-Dec-01 18:28N 57°42' E 010°36'7 7.9
2016-Dec-01 17:34N 57°47' E 010°45'1111.5
2016-Dec-01 16:34N 57°59' E 010°42'1111.4
2016-Dec-01 15:33N 58°10' E 010°38'1110.8
2016-Dec-01 14:34N 58°20' E 010°34'1110.4
2016-Dec-01 13:33N 58°31' E 010°30'9 9.1
2016-Dec-01 12:33N 58°40' E 010°26'1110.6
2016-Dec-01 11:34N 58°50' E 010°29'1211.8
2016-Dec-01 10:34N 59°00' E 010°40'10 9.7
2016-Dec-01 09:34N 59°03' E 010°58'10 9.9
2016-Dec-01 08:34N 59°13' E 010°58'5 5.3
2016-Dec-01 07:33N 59°16' E 011°06'4443.5
2016-Dec-01 06:33N 58°54' E 009°53'3 3.3
2016-Dec-01 05:33N 58°56' E 009°48'5 4.7
2016-Dec-01 04:33N 59°00' E 009°47'6 5.7
2016-Dec-01 03:33N 59°04' E 009°39'3 2.8
2016-Dec-01 02:31N 59°06' E 009°35'0 0.0
2016-Dec-01 01:33N 59°06' E 009°35'0 0.0
2016-Dec-01 00:27N 59°06' E 009°35'0 0.0
2016-Nov-30 23:30N 59°06' E 009°35'0 0.0
2016-Nov-30 22:24N 59°06' E 009°35'0 0.0
2016-Nov-30 21:33N 59°06' E 009°35'0 0.0
2016-Nov-30 20:32N 59°06' E 009°35'0 0.0
2016-Nov-30 19:33N 59°06' E 009°35'0 0.0
2016-Nov-30 18:33N 59°06' E 009°35'0 0.0
2016-Nov-30 17:32N 59°06' E 009°35'0 0.0
2016-Nov-30 16:31N 59°06' E 009°35'0 0.0
2016-Nov-30 15:33N 59°06' E 009°35'0 0.0
2016-Nov-30 14:31N 59°06' E 009°35'0 0.0
2016-Nov-30 13:33N 59°06' E 009°35'0 0.0
2016-Nov-30 12:33N 59°06' E 009°35'0 0.0
2016-Nov-30 11:31N 59°06' E 009°35'0 0.0
2016-Nov-30 10:33N 59°06' E 009°35'2 1.5
2016-Nov-30 09:33N 59°07' E 009°38'0 0.0
2016-Nov-30 08:32N 59°07' E 009°38'0 0.0
2016-Nov-30 07:32N 59°07' E 009°38'0 0.0
2016-Nov-30 06:32N 59°07' E 009°38'0 0.0
2016-Nov-30 05:32N 59°07' E 009°38'  

Dump ship's entire track history